Time;durP1;ratioP1;P1;durP2;ratioP2;P2;SDS_P1;SDS_P2;PMS_P1;PMS_P2;Temp;Humidity;BMP_temperature;BMP_pressure;BME280_temperature;BME280_humidity;BME280_pressure;Samples;Min_cycle;Max_cycle;Signal;HPM_P1;HPM_P2
2022/11/08 00:03:00;;;;;;;1.33;1.13;;;10.30;99.90;;;;;;6142930;29;20295;-66
2022/11/08 00:16:14;;;;;;;0.68;0.68;;;10.30;99.90;;;;;;6167141;29;20279;-68
2022/11/08 00:19:20;;;;;;;0.93;0.90;;;10.30;99.90;;;;;;6166515;29;20298;-68
2022/11/08 00:22:25;;;;;;;0.88;0.85;;;10.10;99.90;;;;;;6166662;29;20298;-68
2022/11/08 00:25:31;;;;;;;0.80;0.80;;;10.20;99.90;;;;;;6166806;29;20274;-68
2022/11/08 00:28:36;;;;;;;1.52;0.70;;;10.20;99.90;;;;;;6166231;29;20307;-67
2022/11/08 00:31:41;;;;;;;0.98;0.77;;;10.20;99.90;;;;;;6167042;29;20275;-68
2022/11/08 00:34:47;;;;;;;0.85;0.85;;;10.20;99.90;;;;;;6165966;29;20302;-67
2022/11/08 00:37:52;;;;;;;0.60;0.60;;;10.20;99.90;;;;;;6166004;29;20298;-68
2022/11/08 00:40:58;;;;;;;1.08;0.57;;;10.10;99.90;;;;;;6166602;29;20270;-67
2022/11/08 00:44:03;;;;;;;0.65;0.65;;;10.00;99.90;;;;;;6165632;29;20483;-66
2022/11/08 00:47:09;;;;;;;0.80;0.80;;;10.00;99.90;;;;;;6165780;29;20586;-67
2022/11/08 00:50:14;;;;;;;0.80;0.60;;;10.00;99.90;;;;;;6166231;29;20270;-67
2022/11/08 00:53:20;;;;;;;0.88;0.75;;;10.00;99.90;;;;;;6165825;29;20306;-68
2022/11/08 00:56:27;;;;;;;0.73;0.57;;;9.90;99.90;;;;;;6165148;28;20271;-67
2022/11/08 00:59:32;;;;;;;0.90;0.90;;;9.90;99.90;;;;;;6165336;29;20299;-68
2022/11/08 01:02:37;;;;;;;0.70;0.70;;;9.90;99.90;;;;;;6165155;29;20294;-68
2022/11/08 01:05:42;;;;;;;1.13;0.70;;;9.80;99.90;;;;;;6166924;29;20431;-68
2022/11/08 01:08:48;;;;;;;1.20;0.80;;;9.70;99.90;;;;;;6165998;29;20368;-68
2022/11/08 01:11:55;;;;;;;0.60;0.60;;;9.60;99.90;;;;;;6146964;29;20555;-68
2022/11/08 01:14:59;;;;;;;0.70;0.70;;;9.60;99.90;;;;;;6140862;29;20295;-68
2022/11/08 01:18:05;;;;;;;0.70;0.70;;;9.70;99.90;;;;;;6141585;29;20294;-67
2022/11/08 01:21:15;;;;;;;1.15;0.70;;;9.60;99.90;;;;;;6141555;29;20272;-68
2022/11/08 01:24:20;;;;;;;1.05;0.77;;;9.60;99.90;;;;;;6141033;29;20311;-67
2022/11/08 01:27:26;;;;;;;0.50;0.50;;;9.60;99.90;;;;;;6141118;29;20294;-67
2022/11/08 01:30:31;;;;;;;0.90;0.63;;;9.60;99.90;;;;;;6141471;29;20572;-67
2022/11/08 01:33:37;;;;;;;3.15;0.75;;;9.60;99.90;;;;;;6140906;29;20299;-67
2022/11/08 01:36:42;;;;;;;0.70;0.60;;;9.60;99.90;;;;;;6141622;29;20445;-68
2022/11/08 01:39:47;;;;;;;0.60;0.60;;;9.60;99.90;;;;;;6140446;29;20299;-68
2022/11/08 01:42:54;;;;;;;0.60;0.60;;;9.70;99.90;;;;;;6140594;29;20467;-68
2022/11/08 01:46:36;;;;;;;0.70;0.70;;;9.70;99.90;;;;;;6140880;29;20282;-68
2022/11/08 01:49:44;;;;;;;0.70;0.70;;;9.70;99.90;;;;;;6140653;29;20299;-66
2022/11/08 01:52:51;;;;;;;1.48;0.75;;;9.70;99.90;;;;;;6140583;29;20290;-66
2022/11/08 01:55:57;;;;;;;0.60;0.60;;;9.60;99.90;;;;;;6140902;29;20291;-68
2022/11/08 01:59:05;;;;;;;0.77;0.77;;;9.70;99.90;;;;;;6140421;29;20599;-68
2022/11/08 02:02:14;;;;;;;0.90;0.65;;;9.60;99.90;;;;;;6140206;29;20271;-67
2022/11/08 02:05:25;;;;;;;0.85;0.80;;;9.70;99.90;;;;;;6140768;29;20571;-67
2022/11/08 02:08:34;;;;;;;1.40;0.68;;;9.60;99.90;;;;;;6140036;29;20299;-67
2022/11/08 02:11:40;;;;;;;0.60;0.60;;;9.60;99.90;;;;;;6157328;29;20271;-67
2022/11/08 02:14:46;;;;;;;1.45;0.75;;;9.70;99.90;;;;;;6163586;29;20399;-67
2022/11/08 02:17:51;;;;;;;0.55;0.55;;;9.70;99.90;;;;;;6164173;29;20606;-67
2022/11/08 02:21:08;;;;;;;0.60;0.60;;;9.70;99.90;;;;;;6164633;29;20270;-67
2022/11/08 02:24:14;;;;;;;0.50;0.50;;;9.70;99.90;;;;;;6164018;29;20299;-67
2022/11/08 02:27:20;;;;;;;0.60;0.60;;;9.70;99.90;;;;;;6163677;29;20303;-67
2022/11/08 02:30:31;;;;;;;2.38;0.60;;;9.70;99.90;;;;;;6164550;29;20274;-68
2022/11/08 02:33:36;;;;;;;0.50;0.50;;;9.60;99.90;;;;;;6163874;29;20303;-67
2022/11/08 02:36:43;;;;;;;0.65;0.65;;;9.50;99.90;;;;;;6164251;29;20294;-67
2022/11/08 02:39:49;;;;;;;0.60;0.60;;;9.60;99.90;;;;;;6163811;29;20469;-67
2022/11/08 02:42:54;;;;;;;0.60;0.60;;;9.50;99.90;;;;;;6163464;29;20301;-67
2022/11/08 02:46:00;;;;;;;0.57;0.57;;;9.50;99.90;;;;;;6163733;29;20266;-67
2022/11/08 02:49:05;;;;;;;0.50;0.50;;;9.50;99.90;;;;;;6163427;29;20297;-67
2022/11/08 02:52:13;;;;;;;0.63;0.63;;;9.50;99.90;;;;;;6163129;29;20275;-68
2022/11/08 02:55:19;;;;;;;0.60;0.60;;;9.50;99.90;;;;;;6163157;29;20299;-68
2022/11/08 02:58:24;;;;;;;0.60;0.60;;;9.60;99.90;;;;;;6163319;29;20295;-68
2022/11/08 03:01:29;;;;;;;0.60;0.60;;;9.60;99.90;;;;;;6163489;29;20274;-68
2022/11/08 03:04:34;;;;;;;0.60;0.60;;;9.40;99.90;;;;;;6163008;29;20306;-67
2022/11/08 03:07:39;;;;;;;1.35;0.70;;;9.40;99.90;;;;;;6163095;29;20302;-67
2022/11/08 03:10:45;;;;;;;1.13;0.75;;;9.40;99.90;;;;;;6153649;29;20263;-67
2022/11/08 03:13:50;;;;;;;0.70;0.70;;;9.50;99.90;;;;;;6139047;29;20311;-67
2022/11/08 03:16:55;;;;;;;2.05;0.70;;;9.50;99.90;;;;;;6140483;29;20290;-68
2022/11/08 03:19:59;;;;;;;0.75;0.75;;;9.50;99.90;;;;;;6141971;29;20457;-66
2022/11/08 03:23:07;;;;;;;2.42;0.75;;;9.50;99.90;;;;;;6143867;29;20302;-66
2022/11/08 03:26:15;;;;;;;0.80;0.80;;;9.50;99.90;;;;;;6144849;29;20409;-66
2022/11/08 03:29:20;;;;;;;0.70;0.70;;;9.60;99.90;;;;;;6143877;29;20299;-67
2022/11/08 03:32:25;;;;;;;2.30;0.60;;;9.60;99.90;;;;;;6144063;29;20299;-67
2022/11/08 03:35:31;;;;;;;0.68;0.68;;;9.50;99.90;;;;;;6143826;29;20291;-67
2022/11/08 03:38:36;;;;;;;3.63;0.73;;;9.50;99.90;;;;;;6143426;29;20298;-67
2022/11/08 03:41:42;;;;;;;0.70;0.70;;;9.40;99.90;;;;;;6143979;29;20278;-67
2022/11/08 03:44:47;;;;;;;0.68;0.68;;;9.50;99.90;;;;;;6143200;29;20294;-67
2022/11/08 03:47:52;;;;;;;0.50;0.50;;;9.50;99.90;;;;;;6142976;29;20295;-67
2022/11/08 03:50:56;;;;;;;0.55;0.55;;;9.50;99.90;;;;;;6143426;29;20437;-68
2022/11/08 03:54:01;;;;;;;0.70;0.70;;;9.20;99.90;;;;;;6136119;29;20603;-67
2022/11/08 03:57:08;;;;;;;0.70;0.70;;;9.30;99.90;;;;;;6142387;29;20303;-68
2022/11/08 04:00:17;;;;;;;1.25;0.70;;;9.40;99.90;;;;;;6143795;29;20268;-68
2022/11/08 04:03:22;;;;;;;0.85;0.60;;;9.40;99.90;;;;;;6145474;29;20354;-67
2022/11/08 04:06:27;;;;;;;0.60;0.60;;;9.40;99.90;;;;;;6148755;29;20295;-67
2022/11/08 04:09:32;;;;;;;1.55;0.80;;;9.50;99.90;;;;;;6163699;29;20303;-67
2022/11/08 04:16:03;;;;;;;0.60;0.60;;;9.50;99.90;;;;;;6142344;29;20310;-67
2022/11/08 04:22:30;;;;;;;0.60;0.60;;;9.30;99.90;;;;;;6163920;29;20278;-67
2022/11/08 04:25:35;;;;;;;0.90;0.90;;;9.40;99.90;;;;;;6166455;29;20297;-67
2022/11/08 04:28:43;;;;;;;0.68;0.68;;;9.50;99.90;;;;;;6165977;29;20298;-67
2022/11/08 04:31:48;;;;;;;0.80;0.80;;;9.50;99.90;;;;;;6166719;29;20266;-67
2022/11/08 04:34:53;;;;;;;0.60;0.60;;;9.50;99.90;;;;;;6165537;29;20302;-67
2022/11/08 04:37:59;;;;;;;0.60;0.60;;;9.30;99.90;;;;;;6151820;29;20294;-67
2022/11/08 04:41:05;;;;;;;0.80;0.80;;;9.40;99.90;;;;;;6141614;29;20544;-67
2022/11/08 04:44:17;;;;;;;0.80;0.80;;;9.40;99.90;;;;;;6142218;29;20466;-67
2022/11/08 04:47:21;;;;;;;0.70;0.70;;;9.30;99.90;;;;;;6142154;29;20271;-67
2022/11/08 04:50:26;;;;;;;0.63;0.63;;;9.40;99.90;;;;;;6119954;29;20296;-68
2022/11/08 04:53:32;;;;;;;1.05;0.60;;;9.40;99.90;;;;;;6118470;29;20600;-67
2022/11/08 04:56:37;;;;;;;0.80;0.80;;;9.40;99.90;;;;;;6118351;29;20299;-67
2022/11/08 04:59:43;;;;;;;0.60;0.60;;;9.30;99.90;;;;;;6118319;29;20300;-67
2022/11/08 05:02:48;;;;;;;0.85;0.73;;;9.30;99.90;;;;;;6118828;29;20272;-67
2022/11/08 05:05:52;;;;;;;0.70;0.70;;;9.20;99.90;;;;;;6118522;29;20603;-67
2022/11/08 05:08:59;;;;;;;0.60;0.60;;;9.30;99.90;;;;;;6117783;29;20319;-67
2022/11/08 05:12:04;;;;;;;0.70;0.70;;;9.30;99.90;;;;;;6132562;29;20272;-67
2022/11/08 05:15:12;;;;;;;0.63;0.63;;;9.30;99.90;;;;;;6141718;29;20295;-67
2022/11/08 05:18:17;;;;;;;0.70;0.70;;;9.30;99.90;;;;;;6141023;29;20303;-67
2022/11/08 05:24:46;;;;;;;0.77;0.77;;;9.40;99.90;;;;;;6141548;29;20299;-68
2022/11/08 05:27:51;;;;;;;0.90;0.90;;;9.20;99.90;;;;;;6141559;29;20579;-68
2022/11/08 05:30:58;;;;;;;0.90;0.90;;;9.30;99.90;;;;;;6141086;29;20583;-68
2022/11/08 05:34:13;;;;;;;0.70;0.70;;;9.40;99.90;;;;;;6140964;29;20631;-68
2022/11/08 05:37:18;;;;;;;0.85;0.80;;;9.30;99.90;;;;;;6124778;29;20291;-67
2022/11/08 05:40:23;;;;;;;0.90;0.90;;;9.30;99.90;;;;;;6140999;29;20299;-67
2022/11/08 05:43:34;;;;;;;0.90;0.90;;;9.30;99.90;;;;;;6140467;29;20299;-67
2022/11/08 05:46:40;;;;;;;0.85;0.85;;;9.40;99.90;;;;;;6141175;29;20290;-67
2022/11/08 05:49:45;;;;;;;2.15;1.20;;;9.20;99.90;;;;;;6140499;29;20295;-68
2022/11/08 05:52:51;;;;;;;1.55;0.95;;;9.20;99.90;;;;;;6141036;29;20267;-68
2022/11/08 05:55:59;;;;;;;0.95;0.90;;;9.20;99.90;;;;;;6140549;29;20295;-68
2022/11/08 05:59:03;;;;;;;0.80;0.80;;;9.30;99.90;;;;;;6140438;29;20298;-68
2022/11/08 06:02:10;;;;;;;3.10;0.90;;;9.20;99.90;;;;;;6140813;29;20270;-68
2022/11/08 06:05:15;;;;;;;1.55;0.95;;;9.30;99.90;;;;;;6140857;29;20351;-68
2022/11/08 06:08:21;;;;;;;1.00;1.00;;;9.40;99.90;;;;;;6141667;29;20311;-67
2022/11/08 06:11:27;;;;;;;0.80;0.80;;;9.50;99.90;;;;;;6144956;29;20270;-67
2022/11/08 06:14:32;;;;;;;1.73;0.90;;;9.30;99.90;;;;;;6164118;29;20484;-68
2022/11/08 06:17:38;;;;;;;0.85;0.85;;;9.30;99.90;;;;;;6147168;29;20483;-67
2022/11/08 06:20:43;;;;;;;1.00;1.00;;;9.40;99.90;;;;;;6163873;29;20310;-66
2022/11/08 06:23:48;;;;;;;1.00;1.00;;;9.30;99.90;;;;;;6163546;29;20302;-68
2022/11/08 06:26:53;;;;;;;0.88;0.88;;;9.40;99.90;;;;;;6164063;29;20271;-67
2022/11/08 06:29:57;;;;;;;0.80;0.80;;;9.40;99.90;;;;;;6146483;29;20302;-69
2022/11/08 06:33:04;;;;;;;0.80;0.80;;;9.40;99.90;;;;;;6163255;29;20270;-68
2022/11/08 06:36:09;;;;;;;0.80;0.80;;;9.50;99.90;;;;;;6163929;29;20270;-67
2022/11/08 06:39:14;;;;;;;0.93;0.93;;;9.50;99.90;;;;;;6163686;29;20297;-67
2022/11/08 06:42:19;;;;;;;1.10;1.00;;;9.50;99.90;;;;;;6163796;29;20266;-67
2022/11/08 06:45:24;;;;;;;2.10;1.10;;;9.60;99.90;;;;;;6163215;29;20506;-67
2022/11/08 06:48:30;;;;;;;1.05;1.05;;;9.50;99.90;;;;;;6163454;29;20294;-68
2022/11/08 06:51:39;;;;;;;0.93;0.93;;;9.50;99.90;;;;;;6163623;29;20446;-68
2022/11/08 06:54:44;;;;;;;1.10;1.00;;;9.50;99.90;;;;;;6166685;28;20298;-68
2022/11/08 06:57:49;;;;;;;1.20;1.20;;;9.40;99.90;;;;;;6168453;29;20295;-68
2022/11/08 07:00:54;;;;;;;1.15;1.08;;;9.50;99.90;;;;;;6168164;29;20298;-67
2022/11/08 07:04:00;;;;;;;1.00;1.00;;;9.50;99.90;;;;;;6167865;29;20317;-68
2022/11/08 07:07:05;;;;;;;0.95;0.95;;;9.50;99.90;;;;;;6151160;29;20389;-68
2022/11/08 07:10:13;;;;;;;0.90;0.90;;;9.40;99.90;;;;;;6167670;28;20299;-67
2022/11/08 07:13:18;;;;;;;1.13;1.13;;;9.40;99.90;;;;;;6120953;29;20524;-67
2022/11/08 07:16:24;;;;;;;2.30;1.30;;;9.40;99.90;;;;;;6120777;29;20520;-67
2022/11/08 07:19:30;;;;;;;2.40;2.30;;;9.40;99.90;;;;;;6119972;29;20304;-68
2022/11/08 07:22:35;;;;;;;3.83;2.00;;;9.40;99.90;;;;;;6120242;29;20272;-67
2022/11/08 07:25:40;;;;;;;1.80;1.70;;;9.40;99.90;;;;;;6120147;29;20315;-67
2022/11/08 07:28:44;;;;;;;3.30;1.45;;;9.40;99.90;;;;;;6120171;29;20308;-67
2022/11/08 07:31:49;;;;;;;5.72;1.35;;;9.30;99.90;;;;;;6120606;29;20563;-68
2022/11/08 07:35:01;;;;;;;1.42;1.33;;;9.40;99.90;;;;;;6119905;29;20299;-68
2022/11/08 07:38:07;;;;;;;1.52;1.42;;;9.40;99.90;;;;;;6119919;29;20598;-68
2022/11/08 07:41:12;;;;;;;1.40;1.30;;;9.50;99.90;;;;;;6120680;29;20560;-67
2022/11/08 07:44:17;;;;;;;1.45;1.10;;;9.50;99.90;;;;;;6119736;29;20623;-68
2022/11/08 07:47:22;;;;;;;1.50;1.35;;;9.50;99.90;;;;;;6120355;29;20271;-68
2022/11/08 07:50:29;;;;;;;1.30;1.30;;;9.40;99.90;;;;;;6119949;29;20303;-67
2022/11/08 07:53:34;;;;;;;1.30;1.30;;;9.30;99.90;;;;;;6119679;29;20292;-67
2022/11/08 07:56:39;;;;;;;1.70;1.13;;;9.30;99.90;;;;;;6119932;29;20267;-67
2022/11/08 07:59:44;;;;;;;1.23;1.23;;;9.40;99.90;;;;;;6119656;29;20324;-67
2022/11/08 08:02:49;;;;;;;1.52;1.38;;;9.40;99.90;;;;;;6119707;29;20555;-67
2022/11/08 08:05:55;;;;;;;1.75;1.50;;;9.40;99.90;;;;;;6118932;29;20300;-67
2022/11/08 08:09:05;;;;;;;1.20;1.20;;;9.40;99.90;;;;;;6095730;29;20304;-67
2022/11/08 08:12:12;;;;;;;2.13;1.30;;;9.40;99.90;;;;;;6111369;29;20268;-67
2022/11/08 08:15:17;;;;;;;1.20;1.20;;;9.30;99.90;;;;;;6118891;29;20616;-67
2022/11/08 08:18:22;;;;;;;1.15;1.15;;;9.30;99.90;;;;;;6118867;29;20299;-68
2022/11/08 08:21:28;;;;;;;1.10;1.05;;;9.30;99.90;;;;;;6119443;29;20463;-68
2022/11/08 08:24:33;;;;;;;4.78;1.20;;;9.40;99.90;;;;;;6119145;29;20299;-68
2022/11/08 08:27:38;;;;;;;1.75;1.20;;;9.20;99.90;;;;;;6119560;29;20276;-68
2022/11/08 08:30:42;;;;;;;1.27;1.00;;;9.30;99.90;;;;;;6118853;29;20311;-68
2022/11/08 08:33:48;;;;;;;1.20;1.20;;;9.40;99.90;;;;;;6118274;29;20324;-68
2022/11/08 08:36:55;;;;;;;1.20;1.20;;;9.40;99.90;;;;;;6119145;29;20275;-67
2022/11/08 08:40:00;;;;;;;1.27;1.20;;;9.40;99.90;;;;;;6118190;29;20301;-67
2022/11/08 08:43:06;;;;;;;1.60;1.50;;;9.40;99.90;;;;;;6118498;29;20277;-67
2022/11/08 08:46:13;;;;;;;1.13;1.13;;;9.40;99.90;;;;;;6119464;29;20276;-67
2022/11/08 08:49:17;;;;;;;1.17;1.17;;;9.30;99.90;;;;;;6117493;29;20312;-67
2022/11/08 08:52:24;;;;;;;1.50;1.40;;;9.40;99.90;;;;;;6118519;29;20276;-67
2022/11/08 08:55:29;;;;;;;1.48;1.48;;;9.50;99.90;;;;;;6118459;29;20444;-67
2022/11/08 08:58:34;;;;;;;1.38;1.27;;;9.50;99.90;;;;;;6118247;29;20292;-67
2022/11/08 09:01:39;;;;;;;1.50;1.45;;;9.60;99.90;;;;;;6118892;29;20430;-67
2022/11/08 09:04:45;;;;;;;1.35;1.25;;;9.60;99.90;;;;;;6117819;29;20391;-67
2022/11/08 09:07:55;;;;;;;1.15;1.15;;;9.70;99.90;;;;;;6133032;29;20299;-66
2022/11/08 09:11:01;;;;;;;1.00;1.00;;;9.70;99.90;;;;;;6147243;29;20294;-67
2022/11/08 09:14:05;;;;;;;1.02;1.02;;;9.70;99.90;;;;;;6165033;29;20495;-67
2022/11/08 09:17:10;;;;;;;1.20;1.20;;;9.60;99.90;;;;;;6164422;28;20271;-67
2022/11/08 09:20:15;;;;;;;2.00;1.20;;;9.70;99.90;;;;;;6165116;29;20302;-67
2022/11/08 09:23:22;;;;;;;1.40;1.40;;;9.80;99.90;;;;;;6165095;29;20311;-67
2022/11/08 09:26:27;;;;;;;2.00;1.90;;;9.80;99.90;;;;;;6148695;29;20270;-67
2022/11/08 09:29:33;;;;;;;1.70;1.35;;;9.80;99.90;;;;;;6164804;29;20306;-68
2022/11/08 09:32:37;;;;;;;1.38;1.38;;;9.80;99.90;;;;;;6164917;29;20266;-67
2022/11/08 09:36:03;;;;;;;1.30;1.30;;;9.90;99.90;;;;;;6164636;29;20279;-67
2022/11/08 09:39:10;;;;;;;1.35;1.35;;;9.90;99.90;;;;;;6164841;29;20306;-67
2022/11/08 09:42:38;;;;;;;2.20;2.10;;;9.80;99.90;;;;;;6164636;29;20271;-67
2022/11/08 09:45:45;;;;;;;4.47;1.80;;;10.00;99.90;;;;;;6164628;29;20302;-67
2022/11/08 09:48:50;;;;;;;3.97;1.60;;;10.00;99.90;;;;;;6164424;29;20310;-67
2022/11/08 09:51:55;;;;;;;7.55;1.70;;;10.00;99.90;;;;;;6164739;29;20274;-67
2022/11/08 09:55:16;;;;;;;3.08;1.52;;;9.90;99.90;;;;;;6163913;29;20294;-67
2022/11/08 09:58:31;;;;;;;1.00;1.00;;;9.90;99.90;;;;;;6164064;29;20478;-68
2022/11/08 10:01:37;;;;;;;1.67;1.58;;;9.90;99.90;;;;;;6164214;29;20611;-68
2022/11/08 10:04:42;;;;;;;1.50;1.40;;;9.90;99.90;;;;;;6164134;29;20294;-68
2022/11/08 10:07:54;;;;;;;1.17;1.17;;;9.90;99.90;;;;;;6164086;29;20322;-67
2022/11/08 10:11:20;;;;;;;1.38;1.20;;;10.00;99.90;;;;;;6158565;29;20295;-67
2022/11/08 10:14:38;;;;;;;0.80;0.80;;;10.00;99.90;;;;;;6123083;29;20299;-68
2022/11/08 10:18:45;;;;;;;1.08;0.98;;;10.10;99.90;;;;;;6140549;29;20270;-67
2022/11/08 10:21:58;;;;;;;0.90;0.90;;;10.00;99.90;;;;;;6096041;29;20608;-67
2022/11/08 10:25:11;;;;;;;3.08;1.35;;;10.10;99.90;;;;;;6140344;29;20299;-68
2022/11/08 10:28:21;;;;;;;1.00;1.00;;;10.10;99.90;;;;;;6122689;29;20274;-67
2022/11/08 10:31:31;;;;;;;1.30;1.20;;;10.10;99.90;;;;;;6140523;29;20274;-67
2022/11/08 10:34:43;;;;;;;0.90;0.90;;;10.20;99.90;;;;;;6139739;29;20294;-67
2022/11/08 10:37:50;;;;;;;1.90;0.93;;;10.20;99.90;;;;;;6140738;29;20271;-67
2022/11/08 10:41:01;;;;;;;1.20;1.20;;;10.20;99.90;;;;;;6139749;29;20311;-67
2022/11/08 10:44:14;;;;;;;3.45;1.17;;;10.20;99.90;;;;;;6139121;29;20302;-66
2022/11/08 10:47:22;;;;;;;1.42;1.20;;;10.20;99.90;;;;;;6140232;29;20272;-67
2022/11/08 10:50:37;;;;;;;1.55;1.55;;;10.20;99.90;;;;;;6139416;29;20606;-67
2022/11/08 10:53:44;;;;;;;2.10;1.90;;;10.30;99.90;;;;;;6139526;29;20295;-68
2022/11/08 10:56:55;;;;;;;2.55;1.60;;;10.30;99.90;;;;;;6140198;29;20551;-67
2022/11/08 11:00:26;;;;;;;3.08;1.48;;;10.30;99.90;;;;;;6140337;29;20311;-67
2022/11/08 11:03:31;;;;;;;1.27;1.27;;;10.40;99.90;;;;;;6139496;29;20291;-66
2022/11/08 11:06:36;;;;;;;2.65;0.90;;;10.40;99.90;;;;;;6140108;29;20302;-67
2022/11/08 11:09:41;;;;;;;1.75;1.20;;;10.40;99.90;;;;;;6139534;29;20298;-67
2022/11/08 11:12:50;;;;;;;1.15;0.88;;;10.40;99.90;;;;;;6159529;29;20267;-67
2022/11/08 11:16:01;;;;;;;1.83;1.20;;;10.20;99.90;;;;;;6163043;29;20294;-67
2022/11/08 11:19:12;;;;;;;1.55;1.02;;;10.10;99.90;;;;;;6163286;29;20291;-68
2022/11/08 11:22:32;;;;;;;1.05;1.05;;;10.10;99.90;;;;;;6163437;29;20290;-68
2022/11/08 11:25:37;;;;;;;0.90;0.90;;;10.20;99.90;;;;;;6162866;29;20294;-68
2022/11/08 11:29:06;;;;;;;3.40;0.80;;;10.20;99.90;;;;;;6162842;29;20290;-67
2022/11/08 11:32:26;;;;;;;1.52;1.30;;;10.30;99.90;;;;;;6163696;29;20487;-67
2022/11/08 11:35:42;;;;;;;1.10;1.00;;;10.20;99.90;;;;;;6163006;29;20306;-68
2022/11/08 11:38:53;;;;;;;2.05;1.30;;;10.30;99.90;;;;;;6163161;28;20291;-68
2022/11/08 11:42:04;;;;;;;1.50;1.50;;;10.20;99.90;;;;;;6167917;29;20294;-68
2022/11/08 11:45:35;;;;;;;2.75;1.50;;;10.20;99.90;;;;;;6167367;29;20302;-67
2022/11/08 11:48:46;;;;;;;1.50;1.50;;;10.20;99.90;;;;;;6150253;29;20302;-68
2022/11/08 11:51:53;;;;;;;1.67;1.45;;;10.20;99.90;;;;;;6167904;29;20274;-67
2022/11/08 11:54:58;;;;;;;1.40;1.30;;;10.20;99.90;;;;;;6166972;29;20582;-66
2022/11/08 11:58:17;;;;;;;5.22;1.58;;;10.30;99.90;;;;;;6167036;29;20270;-67
2022/11/08 12:01:32;;;;;;;1.30;1.30;;;10.30;99.90;;;;;;6167179;29;20291;-68
2022/11/08 12:05:06;;;;;;;1.70;1.70;;;10.30;99.90;;;;;;6166903;29;20611;-68
2022/11/08 12:08:25;;;;;;;1.42;1.35;;;10.30;99.90;;;;;;6166224;29;20302;-67
2022/11/08 12:11:44;;;;;;;1.50;1.50;;;10.10;99.90;;;;;;6157768;29;20532;-66
2022/11/08 12:14:57;;;;;;;1.65;1.13;;;10.20;99.90;;;;;;6142376;29;20472;-68
2022/11/08 12:18:44;;;;;;;1.13;1.00;;;10.20;99.90;;;;;;6142518;29;20279;-68
2022/11/08 12:22:00;;;;;;;1.58;1.20;;;10.30;99.90;;;;;;6137201;29;20295;-67
2022/11/08 12:25:13;;;;;;;1.33;1.33;;;10.40;99.90;;;;;;6142669;29;20240;-68
2022/11/08 12:28:44;;;;;;;1.83;1.73;;;10.30;99.90;;;;;;6142455;29;20268;-68
2022/11/08 12:32:05;;;;;;;1.65;1.52;;;10.20;99.90;;;;;;6143195;29;20275;-68
2022/11/08 12:35:28;;;;;;;1.90;1.88;;;10.30;99.90;;;;;;6142818;29;20299;-67
2022/11/08 12:38:38;;;;;;;1.52;1.52;;;10.10;99.90;;;;;;6142220;29;20291;-67
2022/11/08 12:41:53;;;;;;;2.10;2.00;;;10.10;99.90;;;;;;6142948;29;20614;-66
2022/11/08 12:45:22;;;;;;;1.92;1.80;;;10.20;99.90;;;;;;6142182;29;20311;-67
2022/11/08 12:49:06;;;;;;;2.20;1.90;;;10.10;99.90;;;;;;6141917;29;20381;-67
2022/11/08 12:52:29;;;;;;;5.65;1.77;;;10.20;99.90;;;;;;6140307;29;20459;-67
2022/11/08 12:55:37;;;;;;;1.98;1.88;;;10.40;99.90;;;;;;6141793;29;20303;-67
2022/11/08 12:58:45;;;;;;;2.17;1.70;;;10.40;99.90;;;;;;6141641;29;20299;-67
2022/11/08 13:01:51;;;;;;;1.50;1.40;;;10.20;99.90;;;;;;6141910;29;20319;-67
2022/11/08 13:04:59;;;;;;;1.20;1.20;;;10.30;99.90;;;;;;6141448;29;20328;-67
2022/11/08 13:08:13;;;;;;;2.05;1.40;;;10.20;99.90;;;;;;6141548;29;20299;-67
2022/11/08 13:11:25;;;;;;;1.52;1.50;;;10.20;99.90;;;;;;6150181;29;20262;-67
2022/11/08 13:14:30;;;;;;;1.42;1.42;;;10.30;99.90;;;;;;6165101;29;20306;-67
2022/11/08 13:17:35;;;;;;;1.85;1.75;;;10.30;99.90;;;;;;6165449;29;20291;-67
2022/11/08 13:20:41;;;;;;;2.72;1.55;;;10.30;99.90;;;;;;6164717;29;20626;-67
2022/11/08 13:23:47;;;;;;;3.97;1.80;;;10.10;99.90;;;;;;6164622;29;20302;-66
2022/11/08 13:26:53;;;;;;;1.80;1.70;;;10.20;99.90;;;;;;6165750;29;20271;-67
2022/11/08 13:30:32;;;;;;;1.55;1.40;;;10.20;99.90;;;;;;6164681;29;20299;-67
2022/11/08 13:33:37;;;;;;;3.17;1.58;;;10.30;99.90;;;;;;6164958;29;20383;-68
2022/11/08 13:37:22;;;;;;;1.40;1.40;;;10.20;99.90;;;;;;6165653;29;20266;-68
2022/11/08 13:40:52;;;;;;;1.48;1.48;;;10.20;99.90;;;;;;6162120;29;20451;-68
2022/11/08 13:44:01;;;;;;;1.55;1.25;;;10.10;99.90;;;;;;6164678;29;20302;-68
2022/11/08 13:47:53;;;;;;;1.52;1.42;;;10.20;99.90;;;;;;6164802;29;20290;-67
2022/11/08 13:51:23;;;;;;;1.40;1.30;;;10.10;99.90;;;;;;6164561;29;20472;-67
2022/11/08 13:54:50;;;;;;;1.70;1.60;;;10.10;99.90;;;;;;6143538;29;20303;-67
2022/11/08 13:57:58;;;;;;;1.60;1.50;;;10.10;99.90;;;;;;6164777;29;20272;-67
2022/11/08 14:01:06;;;;;;;1.63;1.38;;;10.10;99.90;;;;;;6163855;29;20274;-67
2022/11/08 14:04:25;;;;;;;1.48;1.38;;;10.20;99.90;;;;;;6163745;28;20290;-68
2022/11/08 14:07:34;;;;;;;1.35;1.35;;;10.20;99.90;;;;;;6164507;29;20302;-67
2022/11/08 14:10:51;;;;;;;1.50;1.40;;;10.30;99.90;;;;;;6161162;29;20295;-68
2022/11/08 14:14:45;;;;;;;1.25;1.25;;;10.20;99.90;;;;;;6140239;29;20299;-67
2022/11/08 14:17:53;;;;;;;1.08;1.08;;;10.10;99.90;;;;;;6140747;29;20354;-67
2022/11/08 14:20:58;;;;;;;1.35;1.35;;;10.10;99.90;;;;;;6139964;29;20603;-67
2022/11/08 14:24:04;;;;;;;1.70;1.60;;;10.00;99.90;;;;;;6139595;29;20295;-67
2022/11/08 14:27:12;;;;;;;4.47;1.63;;;9.90;99.90;;;;;;6140494;29;20275;-67
2022/11/08 14:30:20;;;;;;;1.90;1.90;;;9.90;99.90;;;;;;6139865;29;20303;-67
2022/11/08 14:33:28;;;;;;;1.67;1.50;;;9.90;99.90;;;;;;6140084;29;20298;-68
2022/11/08 14:36:33;;;;;;;2.47;1.40;;;9.90;99.90;;;;;;6139892;29;20271;-67
2022/11/08 14:39:38;;;;;;;1.73;1.63;;;9.90;99.90;;;;;;6139496;29;20304;-66
2022/11/08 14:42:44;;;;;;;1.67;1.42;;;9.90;99.90;;;;;;6139936;29;20595;-68
2022/11/08 14:45:51;;;;;;;2.67;1.50;;;9.90;99.90;;;;;;6139428;29;20319;-68
2022/11/08 14:48:58;;;;;;;2.42;1.40;;;9.90;99.90;;;;;;6139490;29;20467;-67
2022/11/08 14:52:09;;;;;;;5.53;1.60;;;9.80;99.90;;;;;;6140230;29;20279;-67
2022/11/08 14:55:17;;;;;;;2.90;1.50;;;9.80;99.90;;;;;;6139824;29;20298;-67
2022/11/08 14:58:22;;;;;;;4.80;1.58;;;9.80;99.90;;;;;;6140087;29;20306;-67
2022/11/08 15:01:27;;;;;;;1.50;1.40;;;9.80;99.90;;;;;;6139835;29;20287;-68
2022/11/08 15:04:39;;;;;;;1.80;1.70;;;9.80;99.90;;;;;;6139700;29;20481;-67
2022/11/08 15:07:46;;;;;;;1.75;1.50;;;9.80;99.90;;;;;;6140261;29;20304;-67
2022/11/08 15:10:57;;;;;;;1.63;1.52;;;9.80;99.90;;;;;;6143931;29;20294;-67
2022/11/08 15:14:05;;;;;;;1.70;1.70;;;9.70;99.90;;;;;;6163505;28;20298;-67
2022/11/08 15:17:32;;;;;;;1.90;1.90;;;9.80;99.90;;;;;;6168311;29;20278;-67
2022/11/08 15:20:38;;;;;;;2.58;2.05;;;9.70;99.90;;;;;;6168078;29;20331;-67
2022/11/08 15:23:47;;;;;;;3.17;1.83;;;9.70;99.90;;;;;;6167663;29;20302;-67
2022/11/08 15:27:07;;;;;;;1.90;1.80;;;9.60;99.90;;;;;;6168069;29;20274;-67
2022/11/08 15:30:17;;;;;;;2.58;1.95;;;9.70;99.90;;;;;;6167548;29;20298;-68
2022/11/08 15:33:23;;;;;;;2.13;1.92;;;9.70;99.90;;;;;;6167783;29;20330;-67
2022/11/08 15:36:34;;;;;;;1.98;1.88;;;9.70;99.90;;;;;;6167968;29;20274;-67
2022/11/08 15:39:40;;;;;;;1.88;1.88;;;9.70;99.90;;;;;;6167618;29;20318;-68
2022/11/08 15:42:46;;;;;;;6.78;1.75;;;9.60;99.90;;;;;;6167627;29;20356;-67
2022/11/08 15:45:53;;;;;;;3.63;2.00;;;9.70;99.90;;;;;;6167560;29;20594;-66
2022/11/08 15:48:59;;;;;;;1.48;1.48;;;9.70;99.90;;;;;;6168073;29;20294;-67
2022/11/08 15:52:05;;;;;;;2.35;2.00;;;9.80;99.90;;;;;;6168477;29;20590;-67
2022/11/08 15:55:15;;;;;;;2.38;1.63;;;9.80;99.90;;;;;;6167325;29;20302;-67
2022/11/08 15:58:25;;;;;;;5.07;1.80;;;9.70;99.90;;;;;;6166716;29;20290;-67
2022/11/08 16:01:30;;;;;;;1.70;1.70;;;9.70;99.90;;;;;;6167279;29;20558;-67
2022/11/08 16:04:35;;;;;;;2.97;1.92;;;9.80;99.90;;;;;;6167002;29;20298;-67
2022/11/08 16:07:42;;;;;;;2.38;2.25;;;9.80;99.90;;;;;;6167093;29;20307;-67
2022/11/08 16:10:48;;;;;;;2.00;2.00;;;9.80;99.90;;;;;;6162953;29;20295;-69
2022/11/08 16:13:54;;;;;;;2.33;2.13;;;9.80;99.90;;;;;;6142884;29;20303;-67
2022/11/08 16:16:59;;;;;;;1.92;1.90;;;9.90;99.90;;;;;;6143049;29;20267;-67
2022/11/08 16:20:19;;;;;;;4.38;2.10;;;9.90;99.90;;;;;;6142664;29;20306;-67
2022/11/08 16:23:25;;;;;;;1.77;1.67;;;9.80;99.90;;;;;;6142870;29;20471;-67
2022/11/08 16:26:30;;;;;;;1.90;1.80;;;9.80;99.90;;;;;;6142647;29;20271;-67
2022/11/08 16:29:35;;;;;;;2.10;2.10;;;9.80;99.90;;;;;;6125766;29;20299;-67
2022/11/08 16:32:39;;;;;;;2.10;2.00;;;9.90;99.90;;;;;;6143038;29;20275;-67
2022/11/08 16:35:44;;;;;;;3.45;1.80;;;9.90;99.90;;;;;;6142348;29;20299;-67
2022/11/08 16:38:53;;;;;;;2.38;2.20;;;9.80;99.90;;;;;;6142279;29;20302;-67
2022/11/08 16:41:58;;;;;;;3.05;2.00;;;9.90;99.90;;;;;;6142758;29;20555;-67
2022/11/08 16:45:04;;;;;;;2.13;2.03;;;9.90;99.90;;;;;;6142038;29;20610;-67
2022/11/08 16:48:16;;;;;;;2.20;2.10;;;9.80;99.90;;;;;;6141755;29;20270;-67
2022/11/08 16:51:24;;;;;;;2.15;2.15;;;9.90;99.90;;;;;;6120986;29;20279;-67
2022/11/08 16:54:30;;;;;;;2.63;2.30;;;9.80;99.90;;;;;;6118610;29;20313;-66